BAW850T EGLL-LKPR
Flight info
| Callsign | BAW850T |
|---|---|
| Flight time | 1h 31m |
| Altitude | 37000 |
| Route | BPK Q295 BRAIN M197 REDFA DCT TACHA DCT NOMKA DCT SUVUT L620 PIKIB T620 LALUK DCT GOLOP |
| Aircraft | A20N/M-SDE2E3FGHIRWXY/LB1 |
Departure
| Time | 2026-05-06 17:09 |
|---|---|
| Airport | London Heathrow Airport (EGLL) |
Arrival
| Time | 2026-05-06 18:40 |
|---|---|
| Airport | Václav Havel Airport Prague (LKPR) |
| Time | Latitude | Longitude | Altitude | Speed | Heading |
|---|---|---|---|---|---|
| 2026-05-06 16:09 | 51.47085 | -0.46446 | 82 ft | 0 kts | 236° |
| 2026-05-06 16:55 | 51.47088 | -0.46441 | 82 ft | 2 kts | 280° |
| 2026-05-06 16:55 | 51.47089 | -0.46439 | 82 ft | 2 kts | 294° |
| 2026-05-06 16:56 | 51.47089 | -0.46437 | 82 ft | 0 kts | 304° |
| 2026-05-06 16:56 | 51.47086 | -0.46425 | 87 ft | 2 kts | 237° |
| 2026-05-06 16:56 | 51.47094 | -0.46415 | 90 ft | 2 kts | 206° |
| 2026-05-06 16:56 | 51.47105 | -0.46399 | 85 ft | 2 kts | 232° |
| 2026-05-06 16:57 | 51.47115 | -0.46380 | 86 ft | 2 kts | 232° |
| 2026-05-06 16:57 | 51.47127 | -0.46354 | 86 ft | 3 kts | 232° |
| 2026-05-06 16:57 | 51.47134 | -0.46320 | 87 ft | 3 kts | 302° |
| 2026-05-06 16:57 | 51.47127 | -0.46308 | 87 ft | 3 kts | 322° |
| 2026-05-06 16:58 | 51.47138 | -0.46319 | 87 ft | 0 kts | 327° |
| 2026-05-06 17:00 | 51.47142 | -0.46322 | 87 ft | 4 kts | 328° |
| 2026-05-06 17:01 | 51.47196 | -0.46377 | 82 ft | 11 kts | 326° |
| 2026-05-06 17:01 | 51.47237 | -0.46451 | 82 ft | 8 kts | 275° |
| 2026-05-06 17:01 | 51.47240 | -0.46544 | 82 ft | 9 kts | 269° |
| 2026-05-06 17:01 | 51.47240 | -0.46653 | 82 ft | 10 kts | 270° |
| 2026-05-06 17:02 | 51.47239 | -0.46777 | 82 ft | 12 kts | 270° |
| 2026-05-06 17:02 | 51.47200 | -0.46868 | 84 ft | 11 kts | 193° |
| 2026-05-06 17:02 | 51.47119 | -0.46869 | 82 ft | 13 kts | 179° |
| 2026-05-06 17:02 | 51.47024 | -0.46867 | 82 ft | 15 kts | 180° |
| 2026-05-06 17:03 | 51.46915 | -0.46866 | 83 ft | 17 kts | 179° |
| 2026-05-06 17:03 | 51.46802 | -0.46867 | 82 ft | 9 kts | 180° |
| 2026-05-06 17:03 | 51.46788 | -0.46867 | 82 ft | 10 kts | 180° |
| 2026-05-06 17:03 | 51.46748 | -0.46954 | 84 ft | 12 kts | 266° |
| 2026-05-06 17:04 | 51.46748 | -0.47098 | 83 ft | 14 kts | 269° |
| 2026-05-06 17:04 | 51.46747 | -0.47254 | 86 ft | 14 kts | 270° |
| 2026-05-06 17:04 | 51.46746 | -0.47418 | 86 ft | 15 kts | 268° |
| 2026-05-06 17:04 | 51.46746 | -0.47532 | 82 ft | 16 kts | 270° |
| 2026-05-06 17:05 | 51.46745 | -0.47705 | 82 ft | 15 kts | 269° |
| 2026-05-06 17:05 | 51.46744 | -0.47891 | 82 ft | 12 kts | 270° |
| 2026-05-06 17:05 | 51.46744 | -0.48019 | 82 ft | 10 kts | 269° |
| 2026-05-06 17:05 | 51.46744 | -0.48046 | 82 ft | 0 kts | 269° |
| 2026-05-06 17:06 | 51.46744 | -0.48074 | 82 ft | 6 kts | 270° |
| 2026-05-06 17:06 | 51.46744 | -0.48131 | 82 ft | 9 kts | 270° |
| 2026-05-06 17:06 | 51.46743 | -0.48239 | 82 ft | 10 kts | 269° |
| 2026-05-06 17:06 | 51.46743 | -0.48361 | 82 ft | 11 kts | 270° |
| 2026-05-06 17:07 | 51.46714 | -0.48468 | 83 ft | 10 kts | 206° |
| 2026-05-06 17:07 | 51.46640 | -0.48468 | 82 ft | 11 kts | 177° |
| 2026-05-06 17:07 | 51.46564 | -0.48471 | 83 ft | 9 kts | 182° |
| 2026-05-06 17:07 | 51.46497 | -0.48470 | 83 ft | 10 kts | 168° |
| 2026-05-06 17:08 | 51.46479 | -0.48374 | 83 ft | 16 kts | 89° |
| 2026-05-06 17:08 | 51.46481 | -0.47840 | 81 ft | 81 kts | 89° |
| 2026-05-06 17:08 | 51.46485 | -0.46631 | 87 ft | 134 kts | 90° |
| 2026-05-06 17:08 | 51.46496 | -0.44893 | 168 ft | 172 kts | 87° |
| 2026-05-06 17:09 | 51.46507 | -0.43003 | 1062 ft | 170 kts | 86° |
| 2026-05-06 17:09 | 51.46632 | -0.41121 | 2033 ft | 169 kts | 69° |
| 2026-05-06 17:09 | 51.47216 | -0.39397 | 2752 ft | 184 kts | 54° |
| 2026-05-06 17:09 | 51.48038 | -0.37663 | 3305 ft | 207 kts | 50° |
| 2026-05-06 17:10 | 51.48995 | -0.35795 | 3930 ft | 227 kts | 49° |
| 2026-05-06 17:10 | 51.50060 | -0.33749 | 4520 ft | 249 kts | 49° |
| 2026-05-06 17:10 | 51.51165 | -0.31570 | 5314 ft | 259 kts | 51° |
| 2026-05-06 17:10 | 51.52167 | -0.29084 | 6285 ft | 265 kts | 62° |
| 2026-05-06 17:11 | 51.52921 | -0.26338 | 7191 ft | 271 kts | 66° |
| 2026-05-06 17:11 | 51.53578 | -0.23678 | 8059 ft | 276 kts | 68° |
| 2026-05-06 17:11 | 51.54252 | -0.20756 | 8984 ft | 281 kts | 68° |
| 2026-05-06 17:11 | 51.55249 | -0.18055 | 9879 ft | 284 kts | 44° |
| 2026-05-06 17:12 | 51.56887 | -0.16246 | 10499 ft | 295 kts | 20° |
| 2026-05-06 17:12 | 51.58964 | -0.15605 | 10855 ft | 317 kts | 0° |
| 2026-05-06 17:12 | 51.61240 | -0.15602 | 11314 ft | 333 kts | 0° |
| 2026-05-06 17:12 | 51.63571 | -0.15356 | 12111 ft | 338 kts | 6° |
| 2026-05-06 17:13 | 51.65891 | -0.14586 | 12927 ft | 344 kts | 20° |
| 2026-05-06 17:13 | 51.67950 | -0.12595 | 13728 ft | 351 kts | 41° |
| 2026-05-06 17:13 | 51.69469 | -0.09490 | 14418 ft | 358 kts | 62° |
| 2026-05-06 17:13 | 51.70312 | -0.05727 | 15153 ft | 362 kts | 75° |
| 2026-05-06 17:14 | 51.70854 | -0.01733 | 15868 ft | 366 kts | 78° |
| 2026-05-06 17:14 | 51.71358 | 0.02322 | 16570 ft | 371 kts | 77° |
| 2026-05-06 17:14 | 51.71910 | 0.06404 | 17298 ft | 374 kts | 76° |
| 2026-05-06 17:14 | 51.72514 | 0.10499 | 17974 ft | 378 kts | 76° |
| 2026-05-06 17:15 | 51.73153 | 0.14625 | 18602 ft | 382 kts | 75° |
| 2026-05-06 17:15 | 51.73818 | 0.18811 | 19189 ft | 386 kts | 75° |
| 2026-05-06 17:15 | 51.74491 | 0.23029 | 19762 ft | 391 kts | 75° |
| 2026-05-06 17:15 | 51.75169 | 0.27305 | 20361 ft | 395 kts | 75° |
| 2026-05-06 17:16 | 51.75843 | 0.31565 | 20917 ft | 399 kts | 75° |
| 2026-05-06 17:16 | 51.76532 | 0.35931 | 21485 ft | 403 kts | 75° |
| 2026-05-06 17:16 | 51.77228 | 0.40339 | 22084 ft | 407 kts | 75° |
| 2026-05-06 17:16 | 51.77929 | 0.44794 | 22651 ft | 411 kts | 75° |
| 2026-05-06 17:17 | 51.78632 | 0.49278 | 23225 ft | 414 kts | 75° |
| 2026-05-06 17:17 | 51.79341 | 0.53816 | 23749 ft | 418 kts | 76° |
| 2026-05-06 17:17 | 51.80053 | 0.58383 | 24238 ft | 420 kts | 76° |
| 2026-05-06 17:17 | 51.80768 | 0.62973 | 24710 ft | 423 kts | 76° |
| 2026-05-06 17:18 | 51.81485 | 0.67590 | 25196 ft | 425 kts | 76° |
| 2026-05-06 17:18 | 51.82202 | 0.72258 | 25650 ft | 428 kts | 77° |
| 2026-05-06 17:18 | 51.82916 | 0.76935 | 26097 ft | 430 kts | 77° |
| 2026-05-06 17:18 | 51.83633 | 0.81647 | 26545 ft | 433 kts | 77° |
| 2026-05-06 17:19 | 51.84410 | 0.86363 | 26972 ft | 435 kts | 75° |
| 2026-05-06 17:19 | 51.85283 | 0.91071 | 27377 ft | 438 kts | 74° |
| 2026-05-06 17:19 | 51.86178 | 0.95797 | 27777 ft | 441 kts | 74° |
| 2026-05-06 17:19 | 51.87070 | 1.00556 | 28178 ft | 443 kts | 74° |
| 2026-05-06 17:20 | 51.87943 | 1.05291 | 28555 ft | 445 kts | 75° |
| 2026-05-06 17:20 | 51.88822 | 1.10111 | 28902 ft | 448 kts | 75° |
| 2026-05-06 17:20 | 51.89701 | 1.14973 | 29259 ft | 450 kts | 75° |
| 2026-05-06 17:20 | 51.90579 | 1.19851 | 29593 ft | 453 kts | 75° |
| 2026-05-06 17:21 | 51.91460 | 1.24759 | 29922 ft | 455 kts | 75° |
| 2026-05-06 17:21 | 51.92345 | 1.29705 | 30207 ft | 458 kts | 75° |
| 2026-05-06 17:21 | 51.93232 | 1.34672 | 30508 ft | 460 kts | 75° |
| 2026-05-06 17:21 | 51.94126 | 1.39670 | 30805 ft | 462 kts | 75° |
| 2026-05-06 17:22 | 51.95020 | 1.44681 | 31100 ft | 464 kts | 75° |
| 2026-05-06 17:22 | 51.95914 | 1.49719 | 31462 ft | 464 kts | 75° |
| 2026-05-06 17:22 | 51.96802 | 1.54744 | 31851 ft | 464 kts | 75° |
| 2026-05-06 17:22 | 51.97688 | 1.59780 | 32238 ft | 463 kts | 75° |
| 2026-05-06 17:23 | 51.98569 | 1.64804 | 32615 ft | 462 kts | 75° |
| 2026-05-06 17:23 | 51.99444 | 1.69817 | 33007 ft | 461 kts | 76° |
| 2026-05-06 17:23 | 52.00254 | 1.74840 | 33365 ft | 460 kts | 77° |
| 2026-05-06 17:23 | 52.01014 | 1.79815 | 33730 ft | 459 kts | 77° |
| 2026-05-06 17:24 | 52.01775 | 1.84844 | 34061 ft | 459 kts | 77° |
| 2026-05-06 17:24 | 52.02538 | 1.89859 | 34316 ft | 459 kts | 77° |
| 2026-05-06 17:24 | 52.03309 | 1.94904 | 34568 ft | 459 kts | 77° |
| 2026-05-06 17:24 | 52.04079 | 1.99930 | 34811 ft | 459 kts | 77° |
| 2026-05-06 17:25 | 52.04851 | 2.04966 | 35040 ft | 460 kts | 77° |
| 2026-05-06 17:25 | 52.05620 | 2.10000 | 35267 ft | 460 kts | 77° |
| 2026-05-06 17:25 | 52.06390 | 2.15056 | 35490 ft | 460 kts | 77° |
| 2026-05-06 17:25 | 52.07155 | 2.20104 | 35697 ft | 461 kts | 77° |
| 2026-05-06 17:26 | 52.07920 | 2.25155 | 35920 ft | 461 kts | 77° |
| 2026-05-06 17:26 | 52.08684 | 2.30222 | 36118 ft | 461 kts | 77° |
| 2026-05-06 17:26 | 52.09446 | 2.35289 | 36317 ft | 462 kts | 77° |
| 2026-05-06 17:26 | 52.10209 | 2.40373 | 36504 ft | 462 kts | 77° |
| 2026-05-06 17:27 | 52.10968 | 2.45446 | 36696 ft | 462 kts | 77° |
| 2026-05-06 17:27 | 52.11780 | 2.50516 | 36885 ft | 463 kts | 74° |
| 2026-05-06 17:27 | 52.12741 | 2.55534 | 36953 ft | 467 kts | 73° |
| 2026-05-06 17:28 | 52.14690 | 2.65710 | 36959 ft | 475 kts | 74° |
| 2026-05-06 17:28 | 52.16635 | 2.75952 | 36952 ft | 471 kts | 74° |
| 2026-05-06 17:29 | 52.18551 | 2.86114 | 36956 ft | 466 kts | 74° |
| 2026-05-06 17:29 | 52.20424 | 2.96108 | 36949 ft | 462 kts | 74° |
| 2026-05-06 17:30 | 52.22288 | 3.06103 | 36944 ft | 458 kts | 74° |
| 2026-05-06 17:30 | 52.24109 | 3.16007 | 36953 ft | 455 kts | 77° |
| 2026-05-06 17:31 | 52.25038 | 3.26260 | 36945 ft | 455 kts | 90° |
| 2026-05-06 17:31 | 52.24616 | 3.36462 | 36935 ft | 449 kts | 100° |
| 2026-05-06 17:32 | 52.23795 | 3.46523 | 36936 ft | 446 kts | 99° |
| 2026-05-06 17:32 | 52.22993 | 3.56569 | 36937 ft | 444 kts | 99° |
| 2026-05-06 17:33 | 52.22187 | 3.66507 | 36935 ft | 441 kts | 100° |
| 2026-05-06 17:33 | 52.21370 | 3.76393 | 36927 ft | 439 kts | 100° |
| 2026-05-06 17:34 | 52.20543 | 3.86241 | 36937 ft | 439 kts | 100° |
| 2026-05-06 17:34 | 52.19704 | 3.96102 | 36923 ft | 446 kts | 100° |
| 2026-05-06 17:35 | 52.18838 | 4.06201 | 36923 ft | 453 kts | 100° |
| 2026-05-06 17:35 | 52.17952 | 4.16435 | 36920 ft | 460 kts | 100° |
| 2026-05-06 17:36 | 52.16596 | 4.31912 | 36911 ft | 458 kts | 100° |
| 2026-05-06 17:36 | 52.15679 | 4.42225 | 36917 ft | 462 kts | 100° |
| 2026-05-06 17:37 | 52.14756 | 4.52517 | 36913 ft | 459 kts | 100° |
| 2026-05-06 17:37 | 52.13825 | 4.62797 | 36912 ft | 459 kts | 100° |
| 2026-05-06 17:38 | 52.12882 | 4.73088 | 36911 ft | 459 kts | 100° |
| 2026-05-06 17:38 | 52.11933 | 4.83357 | 36910 ft | 459 kts | 100° |
| 2026-05-06 17:39 | 52.10973 | 4.93633 | 36979 ft | 461 kts | 100° |
| 2026-05-06 17:39 | 52.09994 | 5.03986 | 36913 ft | 465 kts | 100° |
| 2026-05-06 17:40 | 52.09007 | 5.14361 | 36915 ft | 463 kts | 100° |
| 2026-05-06 17:40 | 52.08020 | 5.24646 | 36911 ft | 459 kts | 100° |
| 2026-05-06 17:41 | 52.07017 | 5.34958 | 36907 ft | 463 kts | 101° |
| 2026-05-06 17:41 | 52.06006 | 5.45273 | 36905 ft | 462 kts | 101° |
| 2026-05-06 17:42 | 52.04986 | 5.55591 | 36906 ft | 462 kts | 101° |
| 2026-05-06 17:42 | 52.03957 | 5.65904 | 36910 ft | 462 kts | 101° |
| 2026-05-06 17:43 | 52.02921 | 5.76191 | 36911 ft | 462 kts | 101° |
| 2026-05-06 17:43 | 52.01873 | 5.86505 | 36912 ft | 462 kts | 101° |
| 2026-05-06 17:44 | 52.00819 | 5.96786 | 36913 ft | 462 kts | 101° |
| 2026-05-06 17:44 | 51.99756 | 6.07069 | 36912 ft | 462 kts | 101° |
| 2026-05-06 17:45 | 51.98683 | 6.17346 | 36909 ft | 462 kts | 101° |
| 2026-05-06 17:45 | 51.97602 | 6.27613 | 36900 ft | 462 kts | 101° |
| 2026-05-06 17:46 | 51.96512 | 6.37887 | 36895 ft | 462 kts | 102° |
| 2026-05-06 17:46 | 51.95411 | 6.48163 | 36885 ft | 462 kts | 102° |
| 2026-05-06 17:47 | 51.94311 | 6.58350 | 36881 ft | 462 kts | 102° |
| 2026-05-06 17:47 | 51.93195 | 6.68589 | 36875 ft | 461 kts | 102° |
| 2026-05-06 17:48 | 51.92069 | 6.78835 | 36874 ft | 461 kts | 102° |
| 2026-05-06 17:48 | 51.90936 | 6.89055 | 36868 ft | 461 kts | 102° |
| 2026-05-06 17:49 | 51.89793 | 6.99282 | 36868 ft | 461 kts | 102° |
| 2026-05-06 17:49 | 51.88641 | 7.09511 | 36863 ft | 461 kts | 102° |
| 2026-05-06 17:50 | 51.87488 | 7.19659 | 36867 ft | 461 kts | 102° |
| 2026-05-06 17:50 | 51.86319 | 7.29872 | 36868 ft | 461 kts | 103° |
| 2026-05-06 17:51 | 51.85141 | 7.40077 | 36872 ft | 461 kts | 103° |
| 2026-05-06 17:51 | 51.83954 | 7.50278 | 36872 ft | 462 kts | 103° |
| 2026-05-06 17:52 | 51.82961 | 7.58752 | 36870 ft | 462 kts | 103° |
| 2026-05-06 17:52 | 51.81755 | 7.68960 | 36863 ft | 462 kts | 103° |
| 2026-05-06 17:53 | 51.80540 | 7.79176 | 36863 ft | 462 kts | 103° |
| 2026-05-06 17:53 | 51.79317 | 7.89377 | 36863 ft | 463 kts | 103° |
| 2026-05-06 17:54 | 51.78085 | 7.99571 | 36863 ft | 463 kts | 103° |
| 2026-05-06 17:54 | 51.76842 | 8.09780 | 36860 ft | 463 kts | 103° |
| 2026-05-06 17:55 | 51.75590 | 8.19977 | 36851 ft | 463 kts | 103° |
| 2026-05-06 17:55 | 51.74328 | 8.30187 | 36844 ft | 464 kts | 104° |
| 2026-05-06 17:56 | 51.73055 | 8.40406 | 36838 ft | 464 kts | 104° |
| 2026-05-06 17:56 | 51.71776 | 8.50593 | 36833 ft | 464 kts | 104° |
| 2026-05-06 17:57 | 51.70486 | 8.60794 | 36830 ft | 464 kts | 104° |
| 2026-05-06 17:57 | 51.69185 | 8.71008 | 36832 ft | 464 kts | 104° |
| 2026-05-06 17:58 | 51.67877 | 8.81198 | 36832 ft | 465 kts | 104° |
| 2026-05-06 17:58 | 51.66567 | 8.91330 | 36833 ft | 465 kts | 104° |
| 2026-05-06 17:59 | 51.65240 | 9.01513 | 36828 ft | 465 kts | 104° |
| 2026-05-06 17:59 | 51.63904 | 9.11704 | 36818 ft | 465 kts | 105° |
| 2026-05-06 18:00 | 51.62558 | 9.21890 | 36812 ft | 465 kts | 105° |
| 2026-05-06 18:00 | 51.61203 | 9.32072 | 36810 ft | 465 kts | 105° |
| 2026-05-06 18:01 | 51.59841 | 9.42241 | 36807 ft | 465 kts | 105° |
| 2026-05-06 18:01 | 51.58469 | 9.52413 | 36809 ft | 465 kts | 105° |
| 2026-05-06 18:02 | 51.57088 | 9.62576 | 36809 ft | 465 kts | 105° |
| 2026-05-06 18:02 | 51.55700 | 9.72721 | 36805 ft | 464 kts | 105° |
| 2026-05-06 18:03 | 51.54304 | 9.82847 | 36802 ft | 464 kts | 105° |
| 2026-05-06 18:03 | 51.52899 | 9.92975 | 36792 ft | 464 kts | 106° |
| 2026-05-06 18:04 | 51.51484 | 10.03084 | 36787 ft | 464 kts | 106° |
| 2026-05-06 18:04 | 51.50058 | 10.13194 | 36786 ft | 464 kts | 106° |
| 2026-05-06 18:05 | 51.48628 | 10.23309 | 36784 ft | 464 kts | 106° |
| 2026-05-06 18:05 | 51.47209 | 10.33333 | 36779 ft | 464 kts | 106° |
| 2026-05-06 18:06 | 51.45767 | 10.43450 | 36784 ft | 464 kts | 106° |
| 2026-05-06 18:06 | 51.44226 | 10.53494 | 36778 ft | 462 kts | 111° |
| 2026-05-06 18:07 | 51.42513 | 10.63464 | 36774 ft | 464 kts | 108° |
| 2026-05-06 18:07 | 51.40839 | 10.73443 | 36777 ft | 464 kts | 109° |
| 2026-05-06 18:08 | 51.39103 | 10.83394 | 36780 ft | 464 kts | 109° |
| 2026-05-06 18:08 | 51.37339 | 10.93323 | 36786 ft | 464 kts | 110° |
| 2026-05-06 18:09 | 51.35561 | 11.03272 | 36784 ft | 464 kts | 110° |
| 2026-05-06 18:09 | 51.33791 | 11.13122 | 36790 ft | 464 kts | 110° |
| 2026-05-06 18:10 | 51.31997 | 11.23053 | 36796 ft | 464 kts | 110° |
| 2026-05-06 18:10 | 51.30195 | 11.32970 | 36797 ft | 464 kts | 110° |
| 2026-05-06 18:11 | 51.28387 | 11.42864 | 36785 ft | 464 kts | 110° |
| 2026-05-06 18:11 | 51.26571 | 11.52754 | 36789 ft | 464 kts | 110° |
| 2026-05-06 18:12 | 51.24782 | 11.62456 | 36778 ft | 464 kts | 110° |
| 2026-05-06 18:12 | 51.22951 | 11.72329 | 36776 ft | 464 kts | 110° |
| 2026-05-06 18:13 | 51.22031 | 11.77264 | 36775 ft | 464 kts | 110° |
| 2026-05-06 18:13 | 51.20800 | 11.83849 | 36541 ft | 461 kts | 111° |
| 2026-05-06 18:14 | 51.19873 | 11.88790 | 36017 ft | 460 kts | 111° |
| 2026-05-06 18:14 | 51.18965 | 11.93623 | 35357 ft | 460 kts | 111° |
| 2026-05-06 18:14 | 51.18041 | 11.98520 | 34635 ft | 462 kts | 111° |
| 2026-05-06 18:14 | 51.17113 | 12.03428 | 33927 ft | 463 kts | 111° |
| 2026-05-06 18:15 | 51.16180 | 12.08346 | 33127 ft | 464 kts | 111° |
| 2026-05-06 18:15 | 51.15246 | 12.13265 | 32378 ft | 463 kts | 111° |
| 2026-05-06 18:15 | 51.14312 | 12.18164 | 31610 ft | 462 kts | 111° |
| 2026-05-06 18:15 | 51.13376 | 12.23062 | 30843 ft | 462 kts | 111° |
| 2026-05-06 18:16 | 51.12442 | 12.27939 | 30270 ft | 459 kts | 111° |
| 2026-05-06 18:16 | 51.11511 | 12.32791 | 29965 ft | 459 kts | 111° |
| 2026-05-06 18:16 | 51.10575 | 12.37656 | 29691 ft | 460 kts | 111° |
| 2026-05-06 18:16 | 51.09639 | 12.42507 | 29402 ft | 458 kts | 111° |
| 2026-05-06 18:17 | 51.08706 | 12.47335 | 29110 ft | 455 kts | 111° |
| 2026-05-06 18:17 | 51.07776 | 12.52134 | 28823 ft | 453 kts | 111° |
| 2026-05-06 18:17 | 51.06847 | 12.56919 | 28546 ft | 451 kts | 111° |
| 2026-05-06 18:17 | 51.05923 | 12.61663 | 28276 ft | 449 kts | 111° |
| 2026-05-06 18:18 | 51.04997 | 12.66405 | 27991 ft | 447 kts | 111° |
| 2026-05-06 18:18 | 51.04074 | 12.71115 | 27717 ft | 445 kts | 111° |
| 2026-05-06 18:18 | 51.03152 | 12.75808 | 27448 ft | 444 kts | 111° |
| 2026-05-06 18:18 | 51.02220 | 12.80551 | 27177 ft | 442 kts | 111° |
| 2026-05-06 18:19 | 51.01319 | 12.85120 | 26918 ft | 440 kts | 111° |
| 2026-05-06 18:19 | 51.00403 | 12.89753 | 26653 ft | 439 kts | 111° |
| 2026-05-06 18:19 | 50.99486 | 12.94374 | 26405 ft | 437 kts | 111° |
| 2026-05-06 18:19 | 50.98572 | 12.98969 | 26145 ft | 435 kts | 111° |
| 2026-05-06 18:20 | 50.97672 | 13.03480 | 25890 ft | 434 kts | 111° |
| 2026-05-06 18:20 | 50.96763 | 13.08031 | 25642 ft | 432 kts | 111° |
| 2026-05-06 18:20 | 50.95854 | 13.12572 | 25392 ft | 430 kts | 111° |
| 2026-05-06 18:20 | 50.94948 | 13.17081 | 25139 ft | 429 kts | 111° |
| 2026-05-06 18:21 | 50.94042 | 13.21584 | 24893 ft | 428 kts | 111° |
| 2026-05-06 18:21 | 50.93141 | 13.26057 | 24648 ft | 426 kts | 111° |
| 2026-05-06 18:21 | 50.92239 | 13.30524 | 24400 ft | 424 kts | 111° |
| 2026-05-06 18:21 | 50.91339 | 13.34973 | 23875 ft | 425 kts | 111° |
| 2026-05-06 18:22 | 50.90428 | 13.39439 | 23306 ft | 424 kts | 112° |
| 2026-05-06 18:22 | 50.89561 | 13.43685 | 22716 ft | 419 kts | 111° |
| 2026-05-06 18:22 | 50.88676 | 13.48013 | 21826 ft | 421 kts | 111° |
| 2026-05-06 18:22 | 50.87774 | 13.52419 | 21153 ft | 418 kts | 111° |
| 2026-05-06 18:23 | 50.86890 | 13.56752 | 20743 ft | 409 kts | 111° |
| 2026-05-06 18:23 | 50.86021 | 13.61002 | 20215 ft | 403 kts | 112° |
| 2026-05-06 18:23 | 50.85162 | 13.65184 | 19689 ft | 397 kts | 112° |
| 2026-05-06 18:23 | 50.84311 | 13.69319 | 19158 ft | 393 kts | 112° |
| 2026-05-06 18:24 | 50.83464 | 13.73415 | 18644 ft | 389 kts | 112° |
| 2026-05-06 18:24 | 50.82628 | 13.77466 | 18123 ft | 385 kts | 112° |
| 2026-05-06 18:24 | 50.81798 | 13.81480 | 17568 ft | 382 kts | 112° |
| 2026-05-06 18:24 | 50.80975 | 13.85438 | 17071 ft | 375 kts | 113° |
| 2026-05-06 18:25 | 50.79993 | 13.89224 | 16660 ft | 372 kts | 120° |
| 2026-05-06 18:25 | 50.78751 | 13.92804 | 16421 ft | 373 kts | 123° |
| 2026-05-06 18:25 | 50.77475 | 13.96385 | 16193 ft | 374 kts | 123° |
| 2026-05-06 18:25 | 50.76227 | 13.99934 | 15953 ft | 372 kts | 123° |
| 2026-05-06 18:26 | 50.74977 | 14.03496 | 15722 ft | 370 kts | 123° |
| 2026-05-06 18:26 | 50.73724 | 14.07055 | 15489 ft | 370 kts | 123° |
| 2026-05-06 18:26 | 50.72475 | 14.10590 | 15250 ft | 369 kts | 123° |
| 2026-05-06 18:26 | 50.71265 | 14.14010 | 15036 ft | 368 kts | 123° |
| 2026-05-06 18:27 | 50.70018 | 14.17530 | 14804 ft | 366 kts | 123° |
| 2026-05-06 18:27 | 50.68775 | 14.21029 | 14571 ft | 365 kts | 123° |
| 2026-05-06 18:27 | 50.67536 | 14.24517 | 14353 ft | 364 kts | 123° |
| 2026-05-06 18:27 | 50.66295 | 14.27998 | 14117 ft | 364 kts | 123° |
| 2026-05-06 18:28 | 50.65192 | 14.31583 | 13853 ft | 365 kts | 117° |
| 2026-05-06 18:28 | 50.63820 | 14.34833 | 14120 ft | 355 kts | 139° |
| 2026-05-06 18:28 | 50.61809 | 14.37021 | 14531 ft | 350 kts | 160° |
| 2026-05-06 18:28 | 50.59476 | 14.37893 | 14948 ft | 344 kts | 181° |
| 2026-05-06 18:29 | 50.57096 | 14.37657 | 15376 ft | 342 kts | 192° |
| 2026-05-06 18:29 | 50.54856 | 14.36470 | 15795 ft | 341 kts | 210° |
| 2026-05-06 18:29 | 50.53559 | 14.35074 | 15871 ft | 342 kts | 219° |
| 2026-05-06 18:29 | 50.51872 | 14.32816 | 15745 ft | 340 kts | 221° |
| 2026-05-06 18:30 | 50.50105 | 14.30328 | 14888 ft | 344 kts | 222° |
| 2026-05-06 18:30 | 50.48309 | 14.27765 | 13763 ft | 351 kts | 223° |
| 2026-05-06 18:30 | 50.46525 | 14.25225 | 12761 ft | 350 kts | 222° |
| 2026-05-06 18:30 | 50.44730 | 14.22688 | 11825 ft | 345 kts | 222° |
| 2026-05-06 18:31 | 50.42950 | 14.20189 | 10916 ft | 342 kts | 222° |
| 2026-05-06 18:31 | 50.41225 | 14.17769 | 10066 ft | 338 kts | 222° |
| 2026-05-06 18:31 | 50.39497 | 14.15335 | 9547 ft | 324 kts | 222° |
| 2026-05-06 18:31 | 50.37881 | 14.13058 | 9379 ft | 301 kts | 222° |
| 2026-05-06 18:32 | 50.36379 | 14.10945 | 9197 ft | 281 kts | 222° |
| 2026-05-06 18:32 | 50.34964 | 14.08953 | 8841 ft | 269 kts | 222° |
| 2026-05-06 18:32 | 50.33582 | 14.07008 | 8245 ft | 267 kts | 222° |
| 2026-05-06 18:32 | 50.32254 | 14.05139 | 7654 ft | 266 kts | 222° |
| 2026-05-06 18:33 | 50.30943 | 14.03289 | 7105 ft | 265 kts | 222° |
| 2026-05-06 18:33 | 50.29578 | 14.01361 | 6549 ft | 263 kts | 222° |
| 2026-05-06 18:33 | 50.28263 | 13.99497 | 6369 ft | 247 kts | 222° |
| 2026-05-06 18:33 | 50.27029 | 13.97746 | 6190 ft | 233 kts | 222° |
| 2026-05-06 18:34 | 50.25841 | 13.96066 | 5755 ft | 230 kts | 220° |
| 2026-05-06 18:34 | 50.24445 | 13.95053 | 5388 ft | 223 kts | 184° |
| 2026-05-06 18:34 | 50.22989 | 13.95496 | 5561 ft | 215 kts | 151° |
| 2026-05-06 18:34 | 50.22007 | 13.97253 | 5260 ft | 221 kts | 115° |
| 2026-05-06 18:35 | 50.21476 | 13.99505 | 4948 ft | 221 kts | 110° |
| 2026-05-06 18:35 | 50.20980 | 14.01738 | 4652 ft | 220 kts | 111° |
| 2026-05-06 18:35 | 50.20428 | 14.03951 | 4359 ft | 218 kts | 117° |
| 2026-05-06 18:35 | 50.19697 | 14.05993 | 4077 ft | 214 kts | 124° |
| 2026-05-06 18:36 | 50.18854 | 14.07873 | 3795 ft | 207 kts | 128° |
| 2026-05-06 18:36 | 50.18002 | 14.09638 | 3569 ft | 197 kts | 127° |
| 2026-05-06 18:36 | 50.17200 | 14.11305 | 3289 ft | 188 kts | 127° |
| 2026-05-06 18:36 | 50.16406 | 14.12949 | 3042 ft | 188 kts | 127° |
| 2026-05-06 18:37 | 50.15638 | 14.14538 | 2780 ft | 177 kts | 126° |
| 2026-05-06 18:37 | 50.15165 | 14.15518 | 2633 ft | 165 kts | 126° |
| 2026-05-06 18:37 | 50.14517 | 14.16859 | 2456 ft | 147 kts | 126° |
| 2026-05-06 18:37 | 50.13930 | 14.18073 | 2264 ft | 134 kts | 126° |
| 2026-05-06 18:38 | 50.13386 | 14.19200 | 2090 ft | 138 kts | 125° |
| 2026-05-06 18:38 | 50.12834 | 14.20341 | 1899 ft | 135 kts | 124° |
| 2026-05-06 18:38 | 50.12270 | 14.21508 | 1717 ft | 135 kts | 125° |
| 2026-05-06 18:38 | 50.11703 | 14.22681 | 1489 ft | 134 kts | 126° |
| 2026-05-06 18:39 | 50.11143 | 14.23832 | 1318 ft | 134 kts | 125° |
| 2026-05-06 18:39 | 50.10580 | 14.24993 | 1177 ft | 131 kts | 126° |
| 2026-05-06 18:39 | 50.10124 | 14.25942 | 1175 ft | 82 kts | 129° |
| 2026-05-06 18:40 | 50.09881 | 14.26690 | 1174 ft | 26 kts | 82° |
| 2026-05-06 18:40 | 50.09888 | 14.26776 | 1176 ft | 0 kts | 83° |
| 2026-05-06 18:40 | 50.09888 | 14.26782 | 1176 ft | 2 kts | 83° |
| 2026-05-06 18:41 | 50.09895 | 14.26862 | 1176 ft | 13 kts | 81° |
| 2026-05-06 18:41 | 50.09910 | 14.27010 | 1176 ft | 14 kts | 82° |
| 2026-05-06 18:41 | 50.09918 | 14.27124 | 1174 ft | 7 kts | 62° |
| 2026-05-06 18:41 | 50.09936 | 14.27132 | 1173 ft | 7 kts | 6° |
| 2026-05-06 18:42 | 50.09966 | 14.27087 | 1172 ft | 8 kts | 310° |
| 2026-05-06 18:42 | 50.10002 | 14.27009 | 1172 ft | 10 kts | 304° |
| 2026-05-06 18:42 | 50.10046 | 14.26916 | 1173 ft | 12 kts | 308° |
| 2026-05-06 18:42 | 50.10100 | 14.26812 | 1175 ft | 13 kts | 308° |
| 2026-05-06 18:43 | 50.10153 | 14.26695 | 1171 ft | 14 kts | 306° |
| 2026-05-06 18:43 | 50.10213 | 14.26571 | 1173 ft | 15 kts | 308° |
| 2026-05-06 18:43 | 50.10277 | 14.26441 | 1176 ft | 15 kts | 307° |
| 2026-05-06 18:43 | 50.10343 | 14.26303 | 1173 ft | 16 kts | 307° |
| 2026-05-06 18:44 | 50.10401 | 14.26178 | 1173 ft | 7 kts | 308° |
| 2026-05-06 18:44 | 50.10438 | 14.26106 | 1173 ft | 10 kts | 309° |
| 2026-05-06 18:44 | 50.10483 | 14.26013 | 1175 ft | 11 kts | 307° |
| 2026-05-06 18:44 | 50.10533 | 14.25909 | 1173 ft | 13 kts | 303° |
| 2026-05-06 18:45 | 50.10538 | 14.25897 | 1175 ft | 0 kts | 303° |
| 2026-05-06 18:45 | 50.10555 | 14.25856 | 1172 ft | 10 kts | 303° |
| 2026-05-06 18:45 | 50.10600 | 14.25747 | 1174 ft | 13 kts | 299° |
| 2026-05-06 18:45 | 50.10638 | 14.25646 | 1173 ft | 10 kts | 306° |
| 2026-05-06 18:46 | 50.10699 | 14.25633 | 1176 ft | 10 kts | 26° |
| 2026-05-06 18:46 | 50.10759 | 14.25695 | 1174 ft | 11 kts | 35° |
| 2026-05-06 18:46 | 50.10823 | 14.25765 | 1172 ft | 12 kts | 34° |
| 2026-05-06 18:46 | 50.10892 | 14.25837 | 1176 ft | 12 kts | 33° |
| 2026-05-06 18:47 | 50.10964 | 14.25913 | 1172 ft | 13 kts | 37° |
| 2026-05-06 18:47 | 50.11012 | 14.26031 | 1172 ft | 13 kts | 65° |
| 2026-05-06 18:47 | 50.11053 | 14.26164 | 1176 ft | 14 kts | 64° |
| 2026-05-06 18:47 | 50.11087 | 14.26306 | 1176 ft | 14 kts | 87° |
| 2026-05-06 18:48 | 50.11078 | 14.26429 | 1174 ft | 0 kts | 98° |
| 2026-05-06 18:50 | 50.11075 | 14.26464 | 1175 ft | 8 kts | 97° |
| 2026-05-06 18:50 | 50.11055 | 14.26562 | 1175 ft | 11 kts | 122° |
| 2026-05-06 18:50 | 50.11000 | 14.26635 | 1172 ft | 6 kts | 148° |
| 2026-05-06 18:50 | 50.10967 | 14.26666 | 1174 ft | 6 kts | 149° |
| 2026-05-06 18:51 | 50.10936 | 14.26696 | 1176 ft | 4 kts | 148° |
| 2026-05-06 18:51 | 50.10926 | 14.26706 | 1174 ft | 1 kts | 149° |
| 2026-05-06 18:51 | 50.10885 | 14.26707 | 1176 ft | 7 kts | 204° |
| 2026-05-06 18:51 | 50.10878 | 14.26700 | 1176 ft | 1 kts | 216° |
| 2026-05-06 18:52 | 50.10876 | 14.26698 | 1176 ft | 0 kts | 214° |
| 2026-05-06 18:52 | 50.10872 | 14.26694 | 1176 ft | 0 kts | 215° |